createdAt,value
2022-11-12T00:00:17.796Z,0.26
2022-11-12T00:01:57.593Z,0.27
2022-11-12T00:03:37.369Z,0.28
2022-11-12T00:05:17.091Z,0.28
2022-11-12T00:06:56.866Z,0.27
2022-11-12T00:10:16.381Z,0.28
2022-11-12T00:11:56.201Z,0.27
2022-11-12T00:13:35.904Z,0.27
2022-11-12T00:15:15.657Z,0.28
2022-11-12T00:18:35.222Z,0.3
2022-11-12T00:20:15.026Z,0.28
2022-11-12T00:21:54.726Z,0.28
2022-11-12T00:23:34.487Z,0.27
2022-11-12T00:25:14.279Z,0.3
2022-11-12T00:26:54.092Z,0.29
2022-11-12T00:28:33.770Z,0.3
2022-11-12T00:30:13.611Z,0.26
2022-11-12T00:31:53.308Z,0.26
2022-11-12T00:35:12.842Z,0.26
2022-11-12T00:36:52.600Z,0.29
2022-11-12T00:38:32.376Z,0.26
2022-11-12T00:40:12.132Z,0.27
2022-11-12T00:41:51.904Z,0.27
2022-11-12T00:43:31.664Z,0.27
2022-11-12T00:45:11.415Z,0.28
2022-11-12T00:46:51.175Z,0.28
2022-11-12T00:48:30.967Z,0.28
2022-11-12T00:50:10.708Z,0.28
2022-11-12T00:51:50.472Z,0.3
2022-11-12T00:53:30.345Z,0.3
2022-11-12T00:55:10.036Z,0.28
2022-11-12T00:56:49.796Z,0.27
2022-11-12T00:58:29.533Z,0.29
2022-11-12T01:00:09.335Z,0.28
2022-11-12T01:01:49.057Z,0.27
2022-11-12T01:03:28.821Z,0.28
2022-11-12T01:05:08.575Z,0.29
2022-11-12T01:06:48.351Z,0.34
2022-11-12T01:08:28.106Z,0.27
2022-11-12T01:10:07.863Z,0.29
2022-11-12T01:11:47.639Z,0.3
2022-11-12T01:15:07.167Z,0.28
2022-11-12T01:16:46.923Z,0.28
2022-11-12T01:18:26.693Z,0.28
2022-11-12T01:21:46.214Z,0.28
2022-11-12T01:25:05.736Z,0.27
2022-11-12T01:26:45.564Z,0.3
2022-11-12T01:28:25.262Z,0.3
2022-11-12T01:30:05.046Z,0.28
2022-11-12T01:31:44.796Z,0.28
2022-11-12T01:35:04.320Z,0.27
2022-11-12T01:36:44.092Z,0.26
2022-11-12T01:38:23.855Z,0.31
2022-11-12T01:40:03.624Z,0.29
2022-11-12T01:41:43.388Z,0.28
2022-11-12T01:43:23.143Z,0.27
2022-11-12T01:45:02.920Z,0.27
2022-11-12T01:48:22.446Z,0.27
2022-11-12T01:51:41.978Z,0.28
2022-11-12T01:55:01.497Z,0.3
2022-11-12T01:58:21.008Z,0.3
2022-11-12T02:00:00.785Z,0.31
2022-11-12T02:05:00.090Z,0.31
2022-11-12T02:06:39.833Z,0.29
2022-11-12T02:09:59.396Z,0.31
2022-11-12T02:11:39.143Z,0.29
2022-11-12T02:14:58.653Z,0.3
2022-11-12T02:16:38.428Z,0.3
2022-11-12T02:18:18.198Z,0.32
2022-11-12T02:19:57.997Z,0.29
2022-11-12T02:23:17.569Z,0.32
2022-11-12T02:28:16.769Z,0.3
2022-11-12T02:31:36.332Z,0.29
2022-11-12T02:33:16.057Z,0.29
2022-11-12T02:34:55.821Z,0.28
2022-11-12T02:36:35.590Z,0.28
2022-11-12T02:38:15.399Z,0.31
2022-11-12T02:39:55.247Z,0.28
2022-11-12T02:44:54.458Z,0.32
2022-11-12T02:48:13.936Z,0.3
2022-11-12T02:49:53.717Z,0.28
2022-11-12T02:51:33.455Z,0.26
2022-11-12T02:54:53.003Z,0.27
2022-11-12T02:56:32.747Z,0.26
2022-11-12T02:58:12.506Z,0.29
2022-11-12T02:59:52.292Z,0.27
2022-11-12T03:01:32.067Z,0.29
2022-11-12T03:04:51.577Z,0.27
2022-11-12T03:06:31.402Z,0.3
2022-11-12T03:08:11.085Z,0.26
2022-11-12T03:09:50.870Z,0.28
2022-11-12T03:11:30.631Z,0.26
2022-11-12T03:16:29.929Z,0.29
2022-11-12T03:18:09.678Z,0.26
2022-11-12T03:19:49.439Z,0.27
2022-11-12T03:21:29.255Z,0.26
2022-11-12T03:23:09.039Z,0.28
2022-11-12T03:24:48.735Z,0.29
2022-11-12T03:29:48.021Z,0.25
2022-11-12T03:33:07.562Z,0.26
2022-11-12T03:34:47.378Z,0.25
2022-11-12T03:36:27.081Z,0.27
2022-11-12T03:38:06.847Z,0.28
2022-11-12T03:41:26.368Z,0.26
2022-11-12T03:43:06.206Z,0.27
2022-11-12T03:44:45.921Z,0.26
2022-11-12T03:46:25.669Z,0.28
2022-11-12T03:48:05.429Z,0.25
2022-11-12T03:51:24.956Z,0.27
2022-11-12T03:53:04.718Z,0.25
2022-11-12T03:54:44.479Z,0.29
2022-11-12T03:56:24.256Z,0.25
2022-11-12T03:58:04.018Z,0.25
2022-11-12T03:59:43.769Z,0.25
2022-11-12T04:01:23.558Z,0.25
2022-11-12T04:03:03.308Z,0.26
2022-11-12T04:04:43.057Z,0.24
2022-11-12T04:06:22.944Z,0.22
2022-11-12T04:08:02.597Z,0.25
2022-11-12T04:09:42.373Z,0.25
2022-11-12T04:11:22.135Z,0.27
2022-11-12T04:14:41.649Z,0.24
2022-11-12T04:16:21.406Z,0.25
2022-11-12T04:18:01.187Z,0.27
2022-11-12T04:19:40.952Z,0.25
2022-11-12T04:21:20.709Z,0.25
2022-11-12T04:24:40.244Z,0.27
2022-11-12T04:26:20.003Z,0.25
2022-11-12T04:27:59.778Z,0.25
2022-11-12T04:29:39.558Z,0.25
2022-11-12T04:31:19.298Z,0.29
2022-11-12T04:32:59.186Z,0.25
2022-11-12T04:34:38.982Z,0.25
2022-11-12T04:36:18.627Z,0.24
2022-11-12T04:37:58.359Z,0.25
2022-11-12T04:39:38.103Z,0.25
2022-11-12T04:41:17.908Z,0.23
2022-11-12T04:44:37.396Z,0.25
2022-11-12T04:46:17.236Z,0.26
2022-11-12T04:47:56.937Z,0.23
2022-11-12T04:51:16.453Z,0.24
2022-11-12T04:54:35.991Z,0.23
2022-11-12T04:56:15.742Z,0.24
2022-11-12T04:57:55.517Z,0.25
2022-11-12T04:59:35.273Z,0.28
2022-11-12T05:01:15.039Z,0.27
2022-11-12T05:04:34.569Z,0.23
2022-11-12T05:06:14.328Z,0.24
2022-11-12T05:07:54.114Z,0.24
2022-11-12T05:09:33.858Z,0.24
2022-11-12T05:14:33.151Z,0.29
2022-11-12T05:17:52.695Z,0.35
2022-11-12T05:19:32.436Z,0.4
2022-11-12T05:21:12.218Z,0.43
2022-11-12T05:24:31.732Z,0.56
2022-11-12T05:26:11.509Z,0.64
2022-11-12T05:27:51.263Z,0.81
2022-11-12T05:29:31.029Z,0.92
2022-11-12T05:31:10.805Z,1.14
2022-11-12T05:32:50.609Z,1.38
2022-11-12T05:34:30.327Z,1.72
2022-11-12T05:36:10.088Z,2.08
2022-11-12T05:37:49.847Z,2.55
2022-11-12T05:42:49.139Z,5.01
2022-11-12T05:44:28.895Z,6.25
2022-11-12T05:46:08.646Z,7.85
2022-11-12T05:47:48.425Z,9.85
2022-11-12T05:51:07.951Z,12.5
2022-11-12T05:54:27.494Z,12.59
2022-11-12T05:56:07.255Z,12.59
2022-11-12T05:59:26.823Z,12.64
2022-11-12T06:01:06.541Z,12.64
2022-11-12T06:02:46.314Z,12.7
2022-11-12T06:04:26.077Z,12.67
2022-11-12T06:06:05.831Z,12.68
2022-11-12T06:07:45.590Z,12.68
2022-11-12T06:09:25.349Z,12.65
2022-11-12T06:11:05.113Z,12.67
2022-11-12T06:14:24.650Z,12.68
2022-11-12T06:21:03.717Z,12.71
2022-11-12T06:22:43.524Z,12.71
2022-11-12T06:24:23.244Z,12.75
2022-11-12T06:26:03.000Z,12.74
2022-11-12T06:27:42.773Z,12.76
2022-11-12T06:29:22.523Z,12.79
2022-11-12T06:31:02.281Z,34.66
2022-11-12T06:36:01.570Z,15.31
2022-11-12T06:37:41.340Z,13.91
2022-11-12T06:39:21.114Z,13.93
2022-11-12T06:41:00.860Z,13.92
2022-11-12T06:44:20.393Z,13.95
2022-11-12T06:46:00.156Z,14.01
2022-11-12T06:47:39.922Z,14
2022-11-12T06:50:59.451Z,14.04
2022-11-12T06:54:18.981Z,14.12
2022-11-12T06:55:58.748Z,14.15
2022-11-12T06:57:38.508Z,14.18
2022-11-12T06:59:18.271Z,14.2
2022-11-12T07:00:58.124Z,14.24
2022-11-12T07:04:17.600Z,14.29
2022-11-12T07:05:57.394Z,14.39
2022-11-12T07:07:37.092Z,14.5
2022-11-12T07:09:16.847Z,14.54
2022-11-12T07:10:56.622Z,14.63
2022-11-12T07:14:16.167Z,14.77
2022-11-12T07:17:35.690Z,14.96
2022-11-12T07:19:15.491Z,15.07
2022-11-12T07:20:55.206Z,15.15
2022-11-12T07:24:14.737Z,15.32
2022-11-12T07:27:34.256Z,15.47
2022-11-12T07:29:14.035Z,15.54
2022-11-12T07:30:53.786Z,15.59
2022-11-12T07:34:13.304Z,15.59
2022-11-12T07:35:53.083Z,34.95
2022-11-12T07:37:32.840Z,15.64
2022-11-12T07:39:12.607Z,15.56
2022-11-12T07:40:52.400Z,15.59
2022-11-12T07:42:32.139Z,15.66
2022-11-12T07:44:11.905Z,15.69
2022-11-12T07:45:51.665Z,15.72
2022-11-12T07:47:31.447Z,15.73
2022-11-12T07:49:11.211Z,15.72
2022-11-12T07:50:51.036Z,15.72
2022-11-12T07:54:10.514Z,15.79
2022-11-12T07:55:50.272Z,15.81
2022-11-12T07:57:30.065Z,15.8
2022-11-12T07:59:09.822Z,15.86
2022-11-12T08:00:49.646Z,16.06
2022-11-12T08:02:29.364Z,16.46
2022-11-12T08:04:09.112Z,45.83
2022-11-12T08:05:48.874Z,44.34
2022-11-12T08:07:28.652Z,46.09
2022-11-12T08:09:08.450Z,46.58
2022-11-12T08:10:48.158Z,45.95
2022-11-12T08:14:07.739Z,46.61
2022-11-12T08:19:07.015Z,44.91
2022-11-12T08:20:46.741Z,44.7
2022-11-12T08:24:06.321Z,46.27
2022-11-12T08:25:46.031Z,46.63
2022-11-12T08:27:25.800Z,47.06
2022-11-12T08:30:45.325Z,46.9
2022-11-12T08:34:04.890Z,47.14
2022-11-12T08:35:44.650Z,47.16
2022-11-12T08:37:24.387Z,47.14
2022-11-12T08:39:04.136Z,47.38
2022-11-12T08:40:43.904Z,46.96
2022-11-12T08:44:03.433Z,46.55
2022-11-12T08:47:22.973Z,46.7
2022-11-12T08:49:02.734Z,47.01
2022-11-12T08:50:42.512Z,46.85
2022-11-12T08:54:02.048Z,46.8
2022-11-12T08:55:41.788Z,46.74
2022-11-12T08:57:21.550Z,46.77
2022-11-12T09:00:41.092Z,46.69
2022-11-12T09:02:20.894Z,46.75
2022-11-12T09:07:20.133Z,46.74
2022-11-12T09:08:59.895Z,46.82
2022-11-12T09:10:39.651Z,46.76
2022-11-12T09:12:19.417Z,46.84
2022-11-12T09:13:59.194Z,46.89
2022-11-12T09:15:38.957Z,46.91
2022-11-12T09:17:18.711Z,46.85
2022-11-12T09:22:18.004Z,46.87
2022-11-12T09:23:57.781Z,46.88
2022-11-12T09:25:37.534Z,46.89
2022-11-12T09:27:17.292Z,46.9
2022-11-12T09:30:36.835Z,46.91
2022-11-12T09:32:16.584Z,46.77
2022-11-12T09:33:56.363Z,46.45
2022-11-12T09:35:36.113Z,45.27
2022-11-12T09:37:15.891Z,45.33
2022-11-12T09:38:55.658Z,45.16
2022-11-12T09:40:35.402Z,45.36
2022-11-12T09:42:15.175Z,45.96
2022-11-12T09:43:54.995Z,46.03
2022-11-12T09:45:34.701Z,45.7
2022-11-12T09:47:14.464Z,46.22
2022-11-12T09:48:54.238Z,46.66
2022-11-12T09:50:33.997Z,46.82
2022-11-12T09:55:33.331Z,46.87
2022-11-12T09:57:13.038Z,46.33
2022-11-12T09:58:52.817Z,46.3
2022-11-12T10:00:32.582Z,46.09
2022-11-12T10:02:12.356Z,46.22
2022-11-12T10:03:52.105Z,45.86
2022-11-12T10:07:11.622Z,45.84
2022-11-12T10:08:51.383Z,45.88
2022-11-12T10:13:50.695Z,46.18
2022-11-12T10:15:30.453Z,46.19
2022-11-12T10:17:10.218Z,46.27
2022-11-12T10:18:49.989Z,46.33
2022-11-12T10:20:29.734Z,46.48
2022-11-12T10:22:09.512Z,46.66
2022-11-12T10:23:49.272Z,46.54
2022-11-12T10:25:29.037Z,46.63
2022-11-12T10:28:48.560Z,46.89
2022-11-12T10:30:28.321Z,46.78
2022-11-12T10:32:08.100Z,46.9
2022-11-12T10:33:47.856Z,46.72
2022-11-12T10:35:27.626Z,46.96
2022-11-12T10:37:07.387Z,47.05
2022-11-12T10:40:26.927Z,46.62
2022-11-12T10:42:06.680Z,46.66
2022-11-12T10:43:46.433Z,46.9
2022-11-12T10:45:26.216Z,46.9
2022-11-12T10:47:05.965Z,46.65
2022-11-12T10:48:45.729Z,46.49
2022-11-12T10:50:25.498Z,46.22
2022-11-12T10:52:05.247Z,45.74
2022-11-12T10:53:45.027Z,45.57
2022-11-12T10:55:24.787Z,45.8
2022-11-12T10:57:04.549Z,46.3
2022-11-12T11:00:24.077Z,46.3
2022-11-12T11:02:03.846Z,46.2
2022-11-12T11:03:43.598Z,46.13
2022-11-12T11:05:23.377Z,45.92
2022-11-12T11:07:03.135Z,45.83
2022-11-12T11:08:42.885Z,46.03
2022-11-12T11:10:22.667Z,45.94
2022-11-12T11:13:42.188Z,45.95
2022-11-12T11:15:21.955Z,45.86
2022-11-12T11:17:01.712Z,45.83
2022-11-12T11:20:21.247Z,45.73
2022-11-12T11:22:01.036Z,45.58
2022-11-12T11:23:40.772Z,45.59
2022-11-12T11:27:00.295Z,45.72
2022-11-12T11:28:40.066Z,45.66
2022-11-12T11:30:19.827Z,45.55
2022-11-12T11:31:59.604Z,45.67
2022-11-12T11:33:39.357Z,45.31
2022-11-12T11:38:38.690Z,45.81
2022-11-12T11:40:18.416Z,45.88
2022-11-12T11:41:58.177Z,45.89
2022-11-12T11:43:37.947Z,45.85
2022-11-12T11:45:17.696Z,45.85
2022-11-12T11:46:57.457Z,45.79
2022-11-12T11:50:16.988Z,45.89
2022-11-12T11:51:56.752Z,46.02
2022-11-12T11:53:36.512Z,46.02
2022-11-12T11:56:56.039Z,46.02
2022-11-12T12:00:15.577Z,46.16
2022-11-12T12:01:55.337Z,46.17
2022-11-12T12:03:35.108Z,46.09
2022-11-12T12:05:14.864Z,46.1
2022-11-12T12:06:54.629Z,46.07
2022-11-12T12:08:34.400Z,45.98
2022-11-12T12:10:14.164Z,46.03
2022-11-12T12:11:53.931Z,45.93
2022-11-12T12:15:13.459Z,45.7
2022-11-12T12:16:53.219Z,45.78
2022-11-12T12:18:32.978Z,45.91
2022-11-12T12:20:12.748Z,45.92
2022-11-12T12:23:32.270Z,46.03
2022-11-12T12:26:51.791Z,46.05
2022-11-12T12:28:31.557Z,45.92
2022-11-12T12:30:11.334Z,45.79
2022-11-12T12:31:51.096Z,45.79
2022-11-12T12:33:30.898Z,45.87
2022-11-12T12:35:10.610Z,45.84
2022-11-12T12:36:50.385Z,45.77
2022-11-12T12:38:30.152Z,45.82
2022-11-12T12:40:09.916Z,45.87
2022-11-12T12:41:49.667Z,45.82
2022-11-12T12:43:29.449Z,45.82
2022-11-12T12:45:09.257Z,45.82
2022-11-12T12:46:49.039Z,45.82
2022-11-12T12:48:28.731Z,45.8
2022-11-12T12:50:08.528Z,45.79
2022-11-12T12:51:48.259Z,45.76
2022-11-12T12:53:28.029Z,45.66
2022-11-12T12:55:07.780Z,45.57
2022-11-12T12:56:47.532Z,45.48
2022-11-12T12:58:27.312Z,45.43
2022-11-12T13:00:07.177Z,45.4
2022-11-12T13:01:46.830Z,45.34
2022-11-12T13:03:26.593Z,45.24
2022-11-12T13:05:06.376Z,45.15
2022-11-12T13:06:46.125Z,45.2
2022-11-12T13:10:05.779Z,44.88
2022-11-12T13:11:45.461Z,44.7
2022-11-12T13:13:25.209Z,44.4
2022-11-12T13:15:04.959Z,44.06
2022-11-12T13:16:44.719Z,43.75
2022-11-12T13:20:04.261Z,43.25
2022-11-12T13:21:44.006Z,43.64
2022-11-12T13:23:23.762Z,43.05
2022-11-12T13:26:43.296Z,42.9
2022-11-12T13:28:23.087Z,42.77
2022-11-12T13:31:42.625Z,42.52
2022-11-12T13:36:41.884Z,42.62
2022-11-12T13:38:21.655Z,42.69
2022-11-12T13:40:01.413Z,42.83
2022-11-12T13:41:41.169Z,42.88
2022-11-12T13:43:20.942Z,42.8
2022-11-12T13:45:00.708Z,42.85
2022-11-12T13:48:20.255Z,42.73
2022-11-12T13:50:00.015Z,42.84
2022-11-12T13:51:39.763Z,42.78
2022-11-12T13:53:19.521Z,42.94
2022-11-12T13:54:59.293Z,43.07
2022-11-12T13:56:39.101Z,43.13
2022-11-12T13:58:18.815Z,43.1
2022-11-12T13:59:58.577Z,43.17
2022-11-12T14:01:38.346Z,42.99
2022-11-12T14:06:37.651Z,43.22
2022-11-12T14:09:57.182Z,43.43
2022-11-12T14:11:36.936Z,43.42
2022-11-12T14:13:16.735Z,43.27
2022-11-12T14:14:56.470Z,43.15
2022-11-12T14:16:36.209Z,42.55
2022-11-12T14:18:15.980Z,42.11
2022-11-12T14:19:55.767Z,41.77
2022-11-12T14:21:35.524Z,41.45
2022-11-12T14:23:15.267Z,41.12
2022-11-12T14:24:55.037Z,41.3
2022-11-12T14:26:34.791Z,41.32
2022-11-12T14:28:14.586Z,40.78
2022-11-12T14:29:54.418Z,40.43
2022-11-12T14:33:14.017Z,40.38
2022-11-12T14:34:53.611Z,39.56
2022-11-12T14:36:33.389Z,37.73
2022-11-12T14:39:52.966Z,36.36
2022-11-12T14:41:32.685Z,35.75
2022-11-12T14:43:12.489Z,34.95
2022-11-12T14:44:52.208Z,33.61
2022-11-12T14:46:31.992Z,30.61
2022-11-12T14:53:11.027Z,18.48
2022-11-12T14:54:50.818Z,14.6
2022-11-12T14:56:30.602Z,14.55
2022-11-12T14:58:10.354Z,14.52
2022-11-12T14:59:50.133Z,14.44
2022-11-12T15:01:29.878Z,15.93
2022-11-12T15:03:09.613Z,15.72
2022-11-12T15:04:49.365Z,22.48
2022-11-12T15:06:29.154Z,20.26
2022-11-12T15:08:08.906Z,13.04
2022-11-12T15:09:48.668Z,13.36
2022-11-12T15:13:08.225Z,13.28
2022-11-12T15:14:47.950Z,13.25
2022-11-12T15:16:27.717Z,13.22
2022-11-12T15:18:07.524Z,13.2
2022-11-12T15:19:47.240Z,13.19
2022-11-12T15:21:27.027Z,13.15
2022-11-12T15:23:06.765Z,13.16
2022-11-12T15:26:26.374Z,13.13
2022-11-12T15:29:45.826Z,13.11
2022-11-12T15:33:05.354Z,13.09
2022-11-12T15:36:24.944Z,13.06
2022-11-12T15:38:04.638Z,13.04
2022-11-12T15:39:44.400Z,13.02
2022-11-12T15:43:03.935Z,12.97
2022-11-12T15:44:43.709Z,12.92
2022-11-12T15:46:23.578Z,12.52
2022-11-12T15:48:03.233Z,11.56
2022-11-12T15:49:42.995Z,9.77
2022-11-12T15:53:02.534Z,5.55
2022-11-12T15:56:22.046Z,3.39
2022-11-12T15:58:01.887Z,2.65
2022-11-12T15:59:41.575Z,2.07
2022-11-12T16:03:01.117Z,1.34
2022-11-12T16:06:20.634Z,0.92
2022-11-12T16:08:00.398Z,0.78
2022-11-12T16:09:40.198Z,0.62
2022-11-12T16:11:19.923Z,0.52
2022-11-12T16:12:59.688Z,0.4
2022-11-12T16:19:38.742Z,0.17
2022-11-12T16:22:58.283Z,0.11
2022-11-12T16:24:38.043Z,0.09
2022-11-12T16:26:17.802Z,0.05
2022-11-12T16:27:57.566Z,0.04
2022-11-12T16:29:37.338Z,0.03
2022-11-12T16:32:56.847Z,0.02
2022-11-12T16:34:36.631Z,0.03
2022-11-12T16:36:16.418Z,0.01
2022-11-12T16:37:56.149Z,0.04
2022-11-12T16:39:35.914Z,0.03
2022-11-12T16:41:15.673Z,0.01
2022-11-12T16:42:55.514Z,0.01
2022-11-12T16:44:35.209Z,0.03
2022-11-12T16:46:14.968Z,0.03
2022-11-12T16:47:54.731Z,0.01
2022-11-12T16:52:54.003Z,0.03
2022-11-12T16:54:33.793Z,0.03
2022-11-12T16:56:13.545Z,0.02
2022-11-12T16:57:53.351Z,0.01
2022-11-12T16:59:33.137Z,0.03
2022-11-12T17:02:52.610Z,0.03
2022-11-12T17:04:32.380Z,0
2022-11-12T17:09:31.666Z,0.03
2022-11-12T17:12:51.192Z,0.01
2022-11-12T17:14:30.948Z,0.02
2022-11-12T17:16:10.887Z,0.09
2022-11-12T17:17:50.578Z,0.03
2022-11-12T17:19:30.297Z,0.01
2022-11-12T17:22:49.778Z,0.01
2022-11-12T17:24:29.596Z,0.02
2022-11-12T17:26:09.308Z,0
2022-11-12T17:27:49.054Z,0.01
2022-11-12T17:29:28.830Z,0.01
2022-11-12T17:32:48.347Z,0.04
2022-11-12T17:34:28.133Z,0.03
2022-11-12T17:36:07.877Z,0.03
2022-11-12T17:37:47.677Z,0.02
2022-11-12T17:39:27.412Z,0.01
2022-11-12T17:42:47.016Z,0.01
2022-11-12T17:44:26.711Z,0.02
2022-11-12T17:46:06.471Z,0.01
2022-11-12T17:49:25.999Z,0.01
2022-11-12T17:52:45.512Z,0.01
2022-11-12T17:54:25.292Z,0.01
2022-11-12T17:57:44.804Z,0.01
2022-11-12T17:59:24.571Z,0.02
2022-11-12T18:01:04.346Z,0.02
2022-11-12T18:02:44.118Z,0.05
2022-11-12T18:04:23.900Z,0.01
2022-11-12T18:06:03.627Z,0.04
2022-11-12T18:07:43.400Z,0.03
2022-11-12T18:09:23.156Z,0.02
2022-11-12T18:11:02.969Z,0.02
2022-11-12T18:12:42.700Z,0.01
2022-11-12T18:14:22.447Z,0.02
2022-11-12T18:16:02.227Z,0.04
2022-11-12T18:17:41.987Z,0.04
2022-11-12T18:19:21.761Z,0.04
2022-11-12T18:22:41.270Z,0.01
2022-11-12T18:24:21.045Z,0.02
2022-11-12T18:26:00.798Z,0.02
2022-11-12T18:32:39.849Z,0.03
2022-11-12T18:34:19.621Z,0.01
2022-11-12T18:35:59.375Z,0.04
2022-11-12T18:37:39.136Z,0.02
2022-11-12T18:39:18.905Z,0.03
2022-11-12T18:40:58.687Z,0.02
2022-11-12T18:42:38.449Z,0.05
2022-11-12T18:44:18.208Z,0.06
2022-11-12T18:45:57.961Z,0.04
2022-11-12T18:47:37.728Z,0.04
2022-11-12T18:49:17.500Z,0.06
2022-11-12T18:50:57.392Z,0.1
2022-11-12T18:52:37.018Z,0.1
2022-11-12T18:54:16.854Z,0.12
2022-11-12T18:55:56.577Z,0.12
2022-11-12T18:59:16.068Z,0.11
2022-11-12T19:02:35.595Z,0.11
2022-11-12T19:04:15.360Z,0.11
2022-11-12T19:05:55.137Z,0.13
2022-11-12T19:07:34.962Z,0.14
2022-11-12T19:09:14.681Z,0.12
2022-11-12T19:12:34.175Z,0.13
2022-11-12T19:14:14.011Z,0.12
2022-11-12T19:15:53.710Z,0.14
2022-11-12T19:17:33.480Z,0.15
2022-11-12T19:20:53.058Z,0.14
2022-11-12T19:22:32.777Z,0.13
2022-11-12T19:24:12.535Z,0.15
2022-11-12T19:25:52.312Z,0.16
2022-11-12T19:27:32.058Z,0.15
2022-11-12T19:29:11.833Z,0.14
2022-11-12T19:32:31.348Z,0.15
2022-11-12T19:34:11.121Z,0.14
2022-11-12T19:37:30.631Z,0.16
2022-11-12T19:39:10.427Z,0.19
2022-11-12T19:42:29.932Z,0.18
2022-11-12T19:44:09.749Z,0.18
2022-11-12T19:45:49.478Z,0.18
2022-11-12T19:47:29.233Z,0.15
2022-11-12T19:49:08.992Z,0.17
2022-11-12T19:50:48.760Z,0.15
2022-11-12T19:52:28.542Z,0.15
2022-11-12T19:54:08.345Z,0.18
2022-11-12T19:55:48.054Z,0.17
2022-11-12T19:57:27.905Z,0.19
2022-11-12T19:59:07.711Z,0.17
2022-11-12T20:00:47.360Z,0.17
2022-11-12T20:02:27.086Z,0.15
2022-11-12T20:04:06.900Z,0.15
2022-11-12T20:05:46.729Z,0.19
2022-11-12T20:07:26.406Z,0.14
2022-11-12T20:10:45.944Z,0.15
2022-11-12T20:12:25.683Z,0.18
2022-11-12T20:14:05.571Z,0.13
2022-11-12T20:15:45.263Z,0.14
2022-11-12T20:17:25.000Z,0.16
2022-11-12T20:19:04.736Z,0.15
2022-11-12T20:24:04.087Z,0.15
2022-11-12T20:25:43.799Z,0.18
2022-11-12T20:27:23.550Z,0.16
2022-11-12T20:29:03.416Z,0.17
2022-11-12T20:30:43.092Z,0.16
2022-11-12T20:32:22.963Z,0.15
2022-11-12T20:34:02.615Z,0.13
2022-11-12T20:35:42.384Z,0.17
2022-11-12T20:37:22.137Z,0.15
2022-11-12T20:42:21.464Z,0.18
2022-11-12T20:44:01.192Z,0.16
2022-11-12T20:45:40.962Z,0.18
2022-11-12T20:47:20.782Z,0.16
2022-11-12T20:49:00.583Z,0.19
2022-11-12T20:50:40.380Z,0.16
2022-11-12T20:52:20.089Z,0.15
2022-11-12T20:53:59.828Z,0.19
2022-11-12T20:55:39.551Z,0.19
2022-11-12T20:57:19.391Z,0.18
2022-11-12T20:58:59.123Z,0.2
2022-11-12T21:02:18.599Z,0.19
2022-11-12T21:03:58.441Z,0.17
2022-11-12T21:05:38.141Z,0.19
2022-11-12T21:07:18.001Z,0.16
2022-11-12T21:08:57.790Z,0.17
2022-11-12T21:12:17.187Z,0.2
2022-11-12T21:13:57.039Z,0.21
2022-11-12T21:15:36.731Z,0.17
2022-11-12T21:17:16.477Z,0.2
2022-11-12T21:18:56.347Z,0.23
2022-11-12T21:22:15.974Z,0.18
2022-11-12T21:23:55.529Z,0.18
2022-11-12T21:25:35.419Z,0.19
2022-11-12T21:27:15.059Z,0.19
2022-11-12T21:28:54.820Z,0.18
2022-11-12T21:30:34.582Z,0.19
2022-11-12T21:32:14.451Z,0.22
2022-11-12T21:33:54.160Z,0.19
2022-11-12T21:35:33.901Z,0.24
2022-11-12T21:38:53.403Z,0.2
2022-11-12T21:40:33.167Z,0.21
2022-11-12T21:42:12.926Z,0.19
2022-11-12T21:47:12.219Z,0.2
2022-11-12T21:48:51.979Z,0.19
2022-11-12T21:50:31.804Z,0.21
2022-11-12T21:52:11.529Z,0.19
2022-11-12T21:53:51.381Z,0.23
2022-11-12T21:55:31.051Z,0.2
2022-11-12T21:57:10.805Z,0.2
2022-11-12T21:58:50.578Z,0.23
2022-11-12T22:00:30.337Z,0.23
2022-11-12T22:02:10.137Z,0.22
2022-11-12T22:03:49.875Z,0.22
2022-11-12T22:07:09.500Z,0.22
2022-11-12T22:08:49.153Z,0.21
2022-11-12T22:12:08.670Z,0.22
2022-11-12T22:15:28.199Z,0.2
2022-11-12T22:17:07.969Z,0.2
2022-11-12T22:18:47.947Z,0.21
2022-11-12T22:20:27.495Z,0.21
2022-11-12T22:22:07.257Z,0.2
2022-11-12T22:23:47.015Z,0.2
2022-11-12T22:25:26.818Z,0.21
2022-11-12T22:27:06.578Z,0.23
2022-11-12T22:28:46.315Z,0.21
2022-11-12T22:30:26.106Z,0.21
2022-11-12T22:32:05.858Z,0.23
2022-11-12T22:33:45.628Z,0.23
2022-11-12T22:37:05.148Z,0.22
2022-11-12T22:38:44.976Z,0.2
2022-11-12T22:42:04.438Z,0.25
2022-11-12T22:43:44.194Z,0.23
2022-11-12T22:45:23.948Z,0.23
2022-11-12T22:47:03.710Z,0.24
2022-11-12T22:48:43.542Z,0.24
2022-11-12T22:50:23.256Z,0.24
2022-11-12T22:52:03.006Z,0.21
2022-11-12T22:53:42.784Z,0.22
2022-11-12T22:55:22.543Z,0.21
2022-11-12T22:57:02.309Z,0.21
2022-11-12T22:58:42.128Z,0.21
2022-11-12T23:00:21.915Z,0.21
2022-11-12T23:02:01.634Z,0.23
2022-11-12T23:03:41.350Z,0.22
2022-11-12T23:05:21.117Z,0.23
2022-11-12T23:08:40.709Z,0.25
2022-11-12T23:12:00.182Z,0.23
2022-11-12T23:13:39.952Z,0.21
2022-11-12T23:15:19.710Z,0.24
2022-11-12T23:16:59.475Z,0.24
2022-11-12T23:18:39.321Z,0.24
2022-11-12T23:20:18.987Z,0.22
2022-11-12T23:21:58.762Z,0.23
2022-11-12T23:23:38.538Z,0.24
2022-11-12T23:25:18.295Z,0.22
2022-11-12T23:26:58.056Z,0.22
2022-11-12T23:28:37.819Z,0.22
2022-11-12T23:30:17.579Z,0.25
2022-11-12T23:31:57.335Z,0.23
2022-11-12T23:33:37.105Z,0.22
2022-11-12T23:35:16.916Z,0.23
2022-11-12T23:36:56.789Z,0.22
2022-11-12T23:38:36.399Z,0.25
2022-11-12T23:40:16.158Z,0.24
2022-11-12T23:43:35.695Z,0.23
2022-11-12T23:45:15.508Z,0.24
2022-11-12T23:46:55.226Z,0.25
2022-11-12T23:48:34.998Z,0.24
2022-11-12T23:51:54.625Z,0.26
2022-11-12T23:53:34.269Z,0.24
2022-11-12T23:55:14.125Z,0.24
2022-11-12T23:56:53.892Z,0.25
2022-11-12T23:58:33.644Z,0.23
